createdAt,value
2019-01-21T00:01:17.920Z,66.30
2019-01-21T00:03:47.165Z,66.30
2019-01-21T00:06:16.424Z,66.30
2019-01-21T00:08:45.585Z,66.20
2019-01-21T00:11:14.719Z,66.10
2019-01-21T00:13:43.910Z,66.10
2019-01-21T00:16:13.260Z,66.00
2019-01-21T00:18:42.424Z,66.10
2019-01-21T00:21:11.569Z,66.20
2019-01-21T00:23:40.944Z,66.20
2019-01-21T00:26:10.068Z,67.00
2019-01-21T00:28:39.296Z,65.80
2019-01-21T00:31:08.439Z,65.80
2019-01-21T00:33:37.621Z,65.80
2019-01-21T00:36:06.759Z,65.70
2019-01-21T00:38:35.900Z,65.50
2019-01-21T00:41:05.166Z,65.40
2019-01-21T00:43:34.301Z,65.80
2019-01-21T00:46:03.561Z,65.10
2019-01-21T00:48:32.697Z,65.40
2019-01-21T00:51:01.986Z,65.50
2019-01-21T00:53:31.202Z,65.60
2019-01-21T00:56:00.375Z,65.20
2019-01-21T00:58:29.505Z,65.30
2019-01-21T01:00:58.876Z,65.90
2019-01-21T01:03:28.008Z,65.60
2019-01-21T01:05:57.274Z,65.70
2019-01-21T01:08:26.425Z,65.60
2019-01-21T01:10:55.673Z,65.60
2019-01-21T01:13:24.801Z,65.60
2019-01-21T01:15:53.967Z,65.70
2019-01-21T01:18:23.112Z,65.80
2019-01-21T01:20:52.497Z,66.10
2019-01-21T01:23:21.647Z,66.40
2019-01-21T01:25:50.840Z,66.50
2019-01-21T01:28:19.990Z,67.40
2019-01-21T01:30:49.204Z,66.50
2019-01-21T01:33:18.336Z,66.50
2019-01-21T01:35:47.689Z,66.60
2019-01-21T01:38:16.968Z,66.50
2019-01-21T01:40:46.354Z,65.90
2019-01-21T01:43:15.497Z,66.10
2019-01-21T01:45:44.652Z,66.10
2019-01-21T01:48:13.805Z,66.10
2019-01-21T01:50:43.252Z,66.20
2019-01-21T01:53:13.115Z,66.70
2019-01-21T01:55:42.260Z,66.40
2019-01-21T01:58:11.424Z,67.00
2019-01-21T02:00:40.586Z,66.10
2019-01-21T02:03:11.297Z,66.10
2019-01-21T02:05:40.447Z,66.00
2019-01-21T02:08:09.604Z,66.40
2019-01-21T02:10:38.796Z,66.60
2019-01-21T02:13:08.099Z,66.90
2019-01-21T02:15:37.249Z,67.10
2019-01-21T02:18:06.537Z,66.70
2019-01-21T02:20:35.665Z,66.80
2019-01-21T02:23:06.229Z,66.90
2019-01-21T02:25:56.497Z,66.80
2019-01-21T02:28:50.059Z,66.90
2019-01-21T02:31:52.610Z,67.10
2019-01-21T02:35:08.656Z,66.90
2019-01-21T02:38:21.022Z,67.10
2019-01-21T02:41:40.317Z,67.30
2019-01-21T02:44:35.460Z,67.80
2019-01-21T02:47:44.784Z,67.50
2019-01-21T02:51:00.866Z,67.80
2019-01-21T02:54:06.977Z,67.70
2019-01-21T02:56:52.604Z,67.70
2019-01-21T03:00:11.194Z,68.00
2019-01-21T03:03:20.823Z,68.10
2019-01-21T03:06:42.859Z,68.90
2019-01-21T03:10:08.651Z,68.20
2019-01-21T03:13:19.977Z,68.70
2019-01-21T03:16:45.057Z,68.10
2019-01-21T03:19:51.221Z,67.90
2019-01-21T03:23:06.426Z,67.90
2019-01-21T03:26:24.247Z,67.90
2019-01-21T03:29:34.454Z,67.70
2019-01-21T03:32:47.729Z,67.50
2019-01-21T03:35:46.970Z,67.50
2019-01-21T03:39:08.511Z,67.80
2019-01-21T03:42:07.826Z,67.90
2019-01-21T03:45:29.877Z,68.00
2019-01-21T03:48:23.658Z,68.60
2019-01-21T03:51:37.951Z,68.50
2019-01-21T03:54:30.700Z,68.30
2019-01-21T03:57:17.729Z,68.40
2019-01-21T04:00:25.084Z,68.40
2019-01-21T04:03:38.185Z,68.60
2019-01-21T04:06:22.002Z,68.60
2019-01-21T04:09:46.552Z,68.60
2019-01-21T04:12:53.865Z,68.20
2019-01-21T04:15:56.933Z,68.00
2019-01-21T04:19:17.307Z,68.50
2019-01-21T04:22:17.405Z,68.70
2019-01-21T04:25:43.098Z,69.20
2019-01-21T04:28:48.972Z,68.80
2019-01-21T04:31:56.525Z,68.30
2019-01-21T04:35:00.729Z,68.50
2019-01-21T04:37:53.181Z,69.00
2019-01-21T04:41:03.701Z,69.10
2019-01-21T04:44:12.768Z,69.30
2019-01-21T04:47:21.756Z,69.20
2019-01-21T04:50:30.344Z,69.20
2019-01-21T04:53:36.368Z,69.50
2019-01-21T04:56:33.244Z,69.20
2019-01-21T04:59:46.194Z,69.40
2019-01-21T05:02:50.867Z,68.50
2019-01-21T05:05:37.021Z,68.50
2019-01-21T05:08:43.066Z,68.40
2019-01-21T05:11:46.372Z,68.00
2019-01-21T05:15:11.857Z,68.20
2019-01-21T05:18:10.091Z,68.90
2019-01-21T05:21:20.930Z,68.50
2019-01-21T05:24:23.400Z,69.80
2019-01-21T05:27:48.675Z,68.90
2019-01-21T05:31:05.033Z,68.40
2019-01-21T05:34:19.090Z,68.20
2019-01-21T05:37:08.918Z,68.10
2019-01-21T05:40:19.336Z,68.40
2019-01-21T05:43:19.820Z,68.40
2019-01-21T05:46:26.449Z,68.60
2019-01-21T05:49:34.259Z,68.30
2019-01-21T05:52:57.121Z,68.20
2019-01-21T05:55:53.508Z,68.00
2019-01-21T05:58:48.064Z,70.90
2019-01-21T06:02:00.481Z,71.90
2019-01-21T06:05:01.299Z,71.40
2019-01-21T06:08:14.601Z,71.10
2019-01-21T06:11:11.665Z,69.90
2019-01-21T06:14:26.828Z,67.70
2019-01-21T06:17:16.917Z,68.10
2019-01-21T06:20:39.405Z,68.80
2019-01-21T06:23:45.386Z,68.50
2019-01-21T06:26:55.832Z,68.90
2019-01-21T06:29:34.213Z,69.10
2019-01-21T06:33:02.560Z,68.40
2019-01-21T06:35:56.496Z,68.30
2019-01-21T06:39:15.568Z,69.00
2019-01-21T06:42:13.859Z,69.10
2019-01-21T06:45:26.560Z,69.60
2019-01-21T06:48:38.707Z,69.90
2019-01-21T06:51:42.321Z,70.00
2019-01-21T06:54:54.167Z,69.80
2019-01-21T06:57:51.091Z,69.00
2019-01-21T07:01:07.587Z,68.90
2019-01-21T07:04:23.815Z,68.90
2019-01-21T07:07:45.731Z,70.70
2019-01-21T07:10:43.656Z,74.20
2019-01-21T07:14:04.998Z,70.60
2019-01-21T07:17:19.186Z,68.60
2019-01-21T07:20:13.564Z,68.80
2019-01-21T07:23:26.809Z,69.20
2019-01-21T07:26:46.492Z,69.50
2019-01-21T07:29:48.355Z,69.20
2019-01-21T07:32:49.385Z,69.90
2019-01-21T07:36:05.741Z,70.10
2019-01-21T07:39:16.176Z,70.70
2019-01-21T07:42:35.232Z,70.00
2019-01-21T07:45:13.112Z,69.90
2019-01-21T07:48:17.189Z,70.40
2019-01-21T07:51:15.533Z,69.70
2019-01-21T07:54:10.419Z,69.90
2019-01-21T07:57:26.325Z,69.30
2019-01-21T08:00:16.447Z,69.30
2019-01-21T08:03:14.688Z,69.30
2019-01-21T08:06:05.302Z,69.40
2019-01-21T08:09:06.612Z,69.50
2019-01-21T08:12:19.429Z,69.30
2019-01-21T08:15:17.570Z,68.90
2019-01-21T08:18:22.388Z,68.00
2019-01-21T08:21:18.985Z,68.40
2019-01-21T08:24:20.428Z,68.20
2019-01-21T08:27:13.586Z,67.80
2019-01-21T08:30:07.960Z,67.60
2019-01-21T08:33:14.042Z,67.30
2019-01-21T08:36:12.873Z,67.10
2019-01-21T08:39:08.297Z,67.00
2019-01-21T08:42:25.138Z,66.60
2019-01-21T08:45:22.947Z,66.90
2019-01-21T08:48:35.075Z,67.10
2019-01-21T08:51:49.407Z,67.20
2019-01-21T08:54:56.792Z,66.70
2019-01-21T08:58:02.787Z,66.10
2019-01-21T09:01:08.124Z,66.10
2019-01-21T09:04:21.673Z,65.90
2019-01-21T09:07:16.227Z,65.00
2019-01-21T09:10:25.072Z,64.90
2019-01-21T09:13:10.680Z,64.50
2019-01-21T09:15:53.076Z,64.90
2019-01-21T09:18:56.696Z,63.80
2019-01-21T09:22:12.792Z,63.80
2019-01-21T09:24:56.393Z,63.60
2019-01-21T09:28:01.364Z,63.10
2019-01-21T09:31:14.532Z,63.00
2019-01-21T09:34:20.835Z,62.80
2019-01-21T09:37:40.132Z,62.40
2019-01-21T09:40:44.957Z,62.40
2019-01-21T09:43:55.446Z,62.40
2019-01-21T09:46:47.075Z,61.80
2019-01-21T09:49:14.709Z,61.50
2019-01-21T09:52:05.388Z,61.70
2019-01-21T09:54:37.428Z,61.40
2019-01-21T09:57:08.369Z,60.80
2019-01-21T09:59:37.677Z,60.50
2019-01-21T10:02:10.463Z,60.20
2019-01-21T10:04:51.465Z,59.90
2019-01-21T10:07:30.206Z,60.20
2019-01-21T10:10:06.241Z,59.70
2019-01-21T10:13:27.153Z,59.50
2019-01-21T10:16:22.305Z,59.40
2019-01-21T10:19:25.949Z,59.10
2019-01-21T10:22:17.536Z,58.10
2019-01-21T10:25:17.748Z,57.60
2019-01-21T10:28:21.468Z,57.60
2019-01-21T10:31:39.632Z,56.80
2019-01-21T10:34:36.557Z,56.60
2019-01-21T10:37:48.460Z,55.00
2019-01-21T10:40:31.109Z,54.40
2019-01-21T10:43:53.696Z,51.80
2019-01-21T10:47:07.818Z,48.80
2019-01-21T10:50:17.847Z,44.10
2019-01-21T10:53:34.183Z,41.50
2019-01-21T10:56:50.712Z,38.30
2019-01-21T11:00:12.899Z,35.80
2019-01-21T11:03:28.024Z,33.30
2019-01-21T11:06:35.536Z,31.50
2019-01-21T11:09:45.392Z,32.40
2019-01-21T11:12:57.301Z,32.20
2019-01-21T11:15:37.974Z,31.50
2019-01-21T11:18:20.524Z,33.20
2019-01-21T11:21:10.836Z,36.60
2019-01-21T11:24:30.873Z,39.20
2019-01-21T11:27:34.872Z,42.10
2019-01-21T11:30:36.587Z,45.60
2019-01-21T11:33:59.076Z,47.20
2019-01-21T11:36:59.375Z,46.90
2019-01-21T11:40:11.375Z,47.70
2019-01-21T11:43:33.924Z,47.70
2019-01-21T11:46:17.193Z,46.30
2019-01-21T11:49:07.260Z,47.10
2019-01-21T11:52:35.393Z,48.60
2019-01-21T11:55:34.297Z,50.80
2019-01-21T11:58:39.204Z,51.60
2019-01-21T12:01:19.832Z,52.50
2019-01-21T12:04:14.245Z,53.30
2019-01-21T12:07:00.076Z,53.60
2019-01-21T12:10:19.617Z,54.60
2019-01-21T12:13:07.197Z,55.10
2019-01-21T12:16:13.456Z,55.50
2019-01-21T12:19:10.995Z,55.90
2019-01-21T12:22:29.026Z,56.60
2019-01-21T12:25:04.464Z,56.30
2019-01-21T12:27:58.894Z,57.20
2019-01-21T12:31:12.240Z,57.30
2019-01-21T12:34:02.097Z,57.40
2019-01-21T12:37:11.392Z,57.80
2019-01-21T12:40:10.516Z,57.40
2019-01-21T12:42:57.481Z,57.40
2019-01-21T12:45:51.209Z,58.20
2019-01-21T12:49:16.468Z,58.40
2019-01-21T12:52:00.823Z,59.10
2019-01-21T12:55:17.343Z,60.50
2019-01-21T12:58:35.942Z,59.90
2019-01-21T13:01:46.060Z,57.90
2019-01-21T13:04:43.579Z,59.10
2019-01-21T13:07:54.448Z,58.40
2019-01-21T13:10:57.997Z,57.90
2019-01-21T13:14:03.001Z,57.40
2019-01-21T13:17:19.392Z,57.40
2019-01-21T13:20:38.861Z,58.10
2019-01-21T13:23:45.038Z,58.90
2019-01-21T13:26:45.361Z,58.90
2019-01-21T13:29:38.111Z,59.10
2019-01-21T13:32:32.693Z,59.10
2019-01-21T13:35:28.809Z,59.00
2019-01-21T13:38:30.761Z,59.00
2019-01-21T13:41:38.385Z,59.20
2019-01-21T13:44:56.404Z,59.30
2019-01-21T13:48:12.418Z,60.00
2019-01-21T13:51:25.387Z,59.70
2019-01-21T13:54:38.425Z,59.30
2019-01-21T13:57:37.477Z,59.20
2019-01-21T14:00:31.141Z,59.40
2019-01-21T14:03:34.733Z,59.60
2019-01-21T14:06:48.976Z,60.50
2019-01-21T14:09:53.761Z,61.10
2019-01-21T14:13:01.020Z,61.20
2019-01-21T14:16:01.948Z,61.60
2019-01-21T14:18:59.762Z,61.80
2019-01-21T14:22:19.154Z,62.70
2019-01-21T14:24:57.569Z,62.30
2019-01-21T14:27:45.007Z,62.10
2019-01-21T14:30:56.286Z,62.00
2019-01-21T14:33:44.305Z,61.50
2019-01-21T14:36:45.205Z,61.60
2019-01-21T14:39:38.549Z,61.60
2019-01-21T14:42:44.371Z,62.20
2019-01-21T14:46:10.288Z,62.40
2019-01-21T14:49:05.028Z,62.40
2019-01-21T14:52:10.767Z,62.70
2019-01-21T14:55:14.596Z,61.90
2019-01-21T14:58:37.268Z,62.30
2019-01-21T15:01:37.803Z,62.40
2019-01-21T15:04:43.037Z,62.60
2019-01-21T15:07:36.872Z,62.00
2019-01-21T15:10:59.327Z,62.20
2019-01-21T15:14:08.572Z,62.10
2019-01-21T15:17:07.444Z,62.50
2019-01-21T15:20:08.498Z,62.80
2019-01-21T15:23:00.886Z,63.00
2019-01-21T15:26:03.639Z,63.10
2019-01-21T15:29:08.322Z,63.80
2019-01-21T15:32:09.425Z,64.30
2019-01-21T15:35:20.514Z,64.90
2019-01-21T15:38:23.212Z,65.20
2019-01-21T15:41:39.770Z,65.40
2019-01-21T15:44:52.860Z,65.50
2019-01-21T15:48:18.252Z,66.40
2019-01-21T15:51:06.833Z,66.00
2019-01-21T15:53:57.513Z,66.20
2019-01-21T15:56:56.273Z,66.60
2019-01-21T16:00:02.137Z,67.30
2019-01-21T16:02:55.153Z,67.20
2019-01-21T16:05:35.789Z,67.30
2019-01-21T16:08:14.567Z,67.50
2019-01-21T16:11:00.887Z,67.70
2019-01-21T16:13:44.097Z,68.00
2019-01-21T16:16:38.561Z,68.20
2019-01-21T16:19:22.910Z,68.10
2019-01-21T16:23:03.809Z,68.20
2019-01-21T16:26:04.413Z,68.30
2019-01-21T16:29:02.611Z,68.40
2019-01-21T16:31:58.560Z,68.20
2019-01-21T16:35:02.955Z,68.20
2019-01-21T16:38:20.756Z,68.70
2019-01-21T16:41:46.577Z,68.60
2019-01-21T16:44:16.143Z,68.20
2019-01-21T16:46:45.501Z,68.30
2019-01-21T16:49:14.695Z,68.70
2019-01-21T16:51:43.909Z,69.10
2019-01-21T16:54:13.167Z,69.30
2019-01-21T16:56:42.401Z,69.40
2019-01-21T16:59:12.301Z,69.50
2019-01-21T17:01:41.565Z,69.10
2019-01-21T17:04:10.772Z,69.20
2019-01-21T17:06:39.945Z,69.40
2019-01-21T17:09:11.331Z,69.10
2019-01-21T17:11:40.882Z,69.40
2019-01-21T17:14:12.014Z,69.60
2019-01-21T17:16:41.210Z,69.30
2019-01-21T17:19:10.556Z,69.30
2019-01-21T17:21:40.037Z,69.10
2019-01-21T17:24:09.419Z,69.10
2019-01-21T17:26:38.679Z,69.40
2019-01-21T17:29:07.840Z,69.60
2019-01-21T17:31:37.120Z,69.70
2019-01-21T17:34:06.282Z,69.60
2019-01-21T17:36:35.475Z,69.50
2019-01-21T17:39:07.731Z,69.60
2019-01-21T17:41:37.012Z,70.10
2019-01-21T17:44:06.315Z,70.00
2019-01-21T17:46:35.468Z,70.10
2019-01-21T17:49:05.048Z,70.00
2019-01-21T17:51:35.399Z,70.10
2019-01-21T17:54:05.092Z,69.80
2019-01-21T17:56:34.377Z,69.50
2019-01-21T17:59:03.546Z,69.90
2019-01-21T18:01:35.740Z,70.20
2019-01-21T18:04:03.881Z,70.30
2019-01-21T18:06:33.160Z,69.70
2019-01-21T18:09:02.440Z,69.40
2019-01-21T18:11:31.716Z,69.50
2019-01-21T18:14:01.101Z,68.70
2019-01-21T18:16:30.308Z,68.80
2019-01-21T18:18:59.606Z,69.20
2019-01-21T18:21:28.752Z,69.50
2019-01-21T18:23:58.541Z,69.90
2019-01-21T18:26:27.814Z,69.70
2019-01-21T18:28:57.088Z,70.10
2019-01-21T18:31:26.233Z,70.30
2019-01-21T18:33:55.416Z,70.20
2019-01-21T18:36:24.828Z,69.70
2019-01-21T18:38:55.205Z,70.00
2019-01-21T18:41:24.428Z,70.10
2019-01-21T18:43:53.768Z,69.80
2019-01-21T18:46:22.942Z,69.80
2019-01-21T18:48:53.706Z,69.40
2019-01-21T18:51:22.863Z,69.60
2019-01-21T18:53:52.294Z,69.60
2019-01-21T18:56:21.438Z,69.50
2019-01-21T18:58:50.719Z,69.70
2019-01-21T19:01:19.879Z,68.80
2019-01-21T19:03:49.368Z,69.40
2019-01-21T19:06:18.620Z,68.80
2019-01-21T19:08:47.920Z,68.90
2019-01-21T19:11:17.112Z,68.00
2019-01-21T19:13:46.280Z,68.20
2019-01-21T19:16:15.608Z,67.80
2019-01-21T19:18:44.761Z,67.60
2019-01-21T19:21:13.964Z,67.40
2019-01-21T19:23:43.206Z,67.90
2019-01-21T19:26:12.490Z,67.90
2019-01-21T19:28:41.655Z,67.60
2019-01-21T19:31:10.966Z,67.90
2019-01-21T19:33:40.201Z,67.80
2019-01-21T19:36:09.594Z,67.90
2019-01-21T19:38:38.745Z,67.90
2019-01-21T19:41:08.097Z,68.60
2019-01-21T19:43:37.247Z,67.90
2019-01-21T19:46:06.581Z,67.70
2019-01-21T19:48:35.836Z,67.90
2019-01-21T19:51:05.170Z,68.10
2019-01-21T19:53:34.423Z,67.80
2019-01-21T19:56:03.832Z,68.10
2019-01-21T19:58:32.963Z,68.10
2019-01-21T20:01:02.273Z,68.50
2019-01-21T20:03:33.455Z,68.50
2019-01-21T20:06:02.971Z,68.70
2019-01-21T20:08:32.293Z,68.60
2019-01-21T20:11:01.645Z,68.60
2019-01-21T20:13:30.845Z,68.40
2019-01-21T20:16:01.141Z,68.40
2019-01-21T20:18:30.459Z,68.90
2019-01-21T20:21:00.461Z,69.30
2019-01-21T20:23:30.272Z,69.60
2019-01-21T20:25:59.458Z,69.80
2019-01-21T20:28:28.782Z,70.20
2019-01-21T20:30:57.936Z,70.60
2019-01-21T20:33:27.676Z,70.40
2019-01-21T20:35:56.924Z,69.70
2019-01-21T20:38:26.142Z,70.30
2019-01-21T20:40:55.305Z,70.10
2019-01-21T20:43:24.613Z,70.10
2019-01-21T20:45:54.033Z,70.20
2019-01-21T20:48:23.291Z,70.80
2019-01-21T20:50:52.604Z,70.40
2019-01-21T20:53:21.913Z,70.10
2019-01-21T20:55:51.163Z,70.50
2019-01-21T20:58:20.788Z,71.40
2019-01-21T21:00:50.001Z,70.20
2019-01-21T21:03:20.496Z,69.90
2019-01-21T21:05:49.752Z,69.60
2019-01-21T21:08:19.019Z,69.90
2019-01-21T21:10:48.189Z,69.40
2019-01-21T21:13:17.806Z,69.50
2019-01-21T21:15:46.896Z,70.40
2019-01-21T21:18:16.018Z,69.90
2019-01-21T21:20:45.887Z,69.40
2019-01-21T21:23:15.176Z,69.20
2019-01-21T21:25:44.243Z,68.20
2019-01-21T21:28:13.383Z,69.30
2019-01-21T21:30:42.435Z,70.00
2019-01-21T21:33:11.571Z,69.10
2019-01-21T21:35:40.754Z,68.50
2019-01-21T21:38:10.036Z,68.50
2019-01-21T21:40:39.201Z,68.40
2019-01-21T21:43:10.348Z,68.20
2019-01-21T21:45:39.637Z,68.30
2019-01-21T21:48:08.770Z,68.30
2019-01-21T21:50:37.889Z,68.50
2019-01-21T21:53:07.020Z,67.70
2019-01-21T21:55:36.245Z,67.30
2019-01-21T21:58:05.996Z,67.70
2019-01-21T22:00:35.208Z,67.80
2019-01-21T22:03:04.327Z,67.70
2019-01-21T22:05:33.443Z,67.80
2019-01-21T22:08:02.580Z,67.90
2019-01-21T22:10:32.109Z,68.30
2019-01-21T22:13:01.212Z,68.10
2019-01-21T22:15:30.530Z,68.40
2019-01-21T22:17:59.692Z,68.20
2019-01-21T22:20:28.812Z,68.90
2019-01-21T22:22:57.984Z,68.70
2019-01-21T22:25:27.197Z,68.80
2019-01-21T22:27:56.363Z,68.20
2019-01-21T22:30:27.764Z,68.50
2019-01-21T22:32:56.995Z,68.60
2019-01-21T22:35:26.340Z,68.80
2019-01-21T22:37:55.621Z,69.20
2019-01-21T22:40:25.294Z,69.50
2019-01-21T22:42:54.574Z,69.70
2019-01-21T22:45:23.729Z,69.70
2019-01-21T22:47:52.885Z,69.60
2019-01-21T22:50:22.276Z,69.20
2019-01-21T22:52:51.492Z,69.10
2019-01-21T22:55:20.936Z,69.40
2019-01-21T22:57:50.081Z,69.90
2019-01-21T23:00:56.455Z,70.10
2019-01-21T23:03:26.776Z,70.10
2019-01-21T23:05:56.027Z,70.50
2019-01-21T23:08:25.473Z,70.20
2019-01-21T23:10:54.631Z,70.00
2019-01-21T23:13:23.903Z,70.30
2019-01-21T23:15:53.146Z,70.40
2019-01-21T23:18:22.320Z,70.60
2019-01-21T23:20:51.936Z,70.60
2019-01-21T23:23:21.125Z,70.40
2019-01-21T23:25:50.309Z,70.20
2019-01-21T23:28:19.464Z,70.20
2019-01-21T23:30:48.622Z,70.20
2019-01-21T23:33:17.774Z,70.10
2019-01-21T23:35:46.922Z,70.40
2019-01-21T23:38:16.092Z,70.70
2019-01-21T23:40:45.231Z,70.40
2019-01-21T23:43:14.408Z,70.90
2019-01-21T23:45:43.888Z,70.70
2019-01-21T23:48:13.035Z,70.70
2019-01-21T23:50:42.301Z,70.40
2019-01-21T23:53:11.454Z,70.00
2019-01-21T23:55:40.656Z,69.80
2019-01-21T23:58:09.809Z,70.30
